Time;durP1;ratioP1;P1;durP2;ratioP2;P2;SDS_P1;SDS_P2;PMS_P1;PMS_P2;Temp;Humidity;BMP_temperature;BMP_pressure;BME280_temperature;BME280_humidity;BME280_pressure;Samples;Min_cycle;Max_cycle;Signal;HPM_P1;HPM_P2
2023/02/21 02:15:46;;;;;;;5.00;2.70;;;;;;;11.29;50.91;99455.46;107821;1289;21993;-62
2023/02/21 02:18:25;;;;;;;6.50;2.70;;;;;;;11.32;50.92;99453.45;107669;1290;22014;-65
2023/02/21 02:21:10;;;;;;;7.40;2.50;;;;;;;11.34;51.01;99455.87;107801;1289;21996;-62
2023/02/21 02:23:42;;;;;;;5.10;2.50;;;;;;;11.32;51.06;99452.73;107853;1289;21979;-62
2023/02/21 02:26:45;;;;;;;5.50;2.50;;;;;;;11.32;51.09;99453.64;107834;1289;21993;-62
2023/02/21 02:29:27;;;;;;;5.10;2.50;;;;;;;11.29;51.27;99455.83;107853;1289;21997;-62
2023/02/21 02:32:22;;;;;;;4.80;2.50;;;;;;;11.29;51.23;99451.23;107989;1289;21996;-62
2023/02/21 02:35:13;;;;;;;5.90;2.70;;;;;;;11.25;51.48;99447.15;107953;1289;21999;-62
2023/02/21 02:37:48;;;;;;;6.50;3.20;;;;;;;11.23;51.54;99447.73;107980;1289;22001;-63
2023/02/21 02:40:35;;;;;;;9.30;3.90;;;;;;;11.25;51.59;99445.77;107876;1289;22456;-62
2023/02/21 02:43:21;;;;;;;8.10;3.30;;;;;;;11.26;51.73;99444.85;107983;1284;21994;-65
2023/02/21 02:45:50;;;;;;;6.30;2.80;;;;;;;11.25;51.68;99442.06;107829;1289;22052;-62
2023/02/21 02:48:29;;;;;;;4.20;2.50;;;;;;;11.25;51.76;99444.00;107866;1289;22136;-62
2023/02/21 02:50:55;;;;;;;4.60;2.30;;;;;;;11.26;52.05;99448.52;107777;1289;22001;-66
2023/02/21 02:53:24;;;;;;;3.90;2.20;;;;;;;11.31;51.92;99446.30;107868;1289;21993;-64
2023/02/21 02:55:55;;;;;;;4.50;2.60;;;;;;;11.37;51.87;99441.20;107905;1289;21990;-65
2023/02/21 02:58:21;;;;;;;5.50;2.40;;;;;;;11.40;51.78;99438.11;107834;1289;21989;-66
2023/02/21 03:01:26;;;;;;;4.40;2.60;;;;;;;11.44;51.78;99437.81;107855;1289;22456;-64
2023/02/21 03:04:04;;;;;;;5.90;2.70;;;;;;;11.48;51.83;99439.79;107820;1289;21994;-66
2023/02/21 03:06:51;;;;;;;4.70;2.80;;;;;;;11.55;51.66;99432.92;107802;1289;21991;-66
2023/02/21 03:09:19;;;;;;;4.80;2.90;;;;;;;11.55;51.84;99428.35;107815;1289;22000;-62
2023/02/21 03:12:00;;;;;;;4.90;2.60;;;;;;;11.58;51.80;99422.45;107849;1289;21998;-65
2023/02/21 03:14:30;;;;;;;6.60;3.10;;;;;;;11.62;51.69;99421.63;107847;1289;22166;-62
2023/02/21 03:16:59;;;;;;;5.50;3.20;;;;;;;11.64;51.39;99415.94;107840;1289;21992;-65
2023/02/21 03:19:27;;;;;;;6.20;2.90;;;;;;;11.63;51.54;99411.93;107814;1289;22012;-62
2023/02/21 03:21:59;;;;;;;4.50;2.80;;;;;;;11.64;51.54;99410.50;107863;1289;22032;-62
2023/02/21 03:24:25;;;;;;;5.10;2.70;;;;;;;11.63;51.53;99416.48;107876;1289;21993;-62
2023/02/21 03:26:54;;;;;;;5.70;2.50;;;;;;;11.62;51.66;99414.77;107887;1289;22256;-62
2023/02/21 03:29:20;;;;;;;5.10;2.40;;;;;;;11.62;51.77;99406.51;107827;1289;22067;-65
2023/02/21 03:31:48;;;;;;;4.10;2.30;;;;;;;11.63;51.62;99405.06;107817;1289;22055;-66
2023/02/21 03:34:14;;;;;;;5.40;2.00;;;;;;;11.64;51.94;99406.98;107862;1289;21994;-62
2023/02/21 03:36:40;;;;;;;4.30;1.90;;;;;;;11.64;52.21;99402.58;107795;1289;22011;-62
2023/02/21 03:39:06;;;;;;;4.00;1.90;;;;;;;11.71;52.11;99399.35;107894;1289;21992;-66
2023/02/21 03:41:32;;;;;;;3.90;1.50;;;;;;;11.82;52.06;99395.48;107850;1289;21987;-65
2023/02/21 03:43:59;;;;;;;5.70;2.20;;;;;;;11.93;51.72;99398.10;107791;1289;22004;-64
2023/02/21 03:46:25;;;;;;;2.90;1.90;;;;;;;12.02;51.71;99391.86;107889;1289;22052;-66
2023/02/21 03:48:51;;;;;;;4.30;1.60;;;;;;;12.15;51.42;99392.83;107867;1289;22020;-62
2023/02/21 03:51:17;;;;;;;2.70;1.70;;;;;;;12.13;51.53;99396.92;107930;1289;21994;-62
2023/02/21 03:53:44;;;;;;;3.90;2.10;;;;;;;12.22;51.31;99382.23;107872;1289;22001;-65
2023/02/21 03:56:10;;;;;;;2.50;1.70;;;;;;;12.30;51.01;99381.77;107874;1289;21990;-65
2023/02/21 03:58:36;;;;;;;2.80;1.50;;;;;;;12.40;51.02;99381.42;107851;1289;21959;-64
2023/02/21 04:01:02;;;;;;;2.70;1.70;;;;;;;12.39;50.98;99373.70;107846;1289;21987;-62
2023/02/21 04:03:28;;;;;;;3.20;1.60;;;;;;;12.44;50.98;99371.78;107824;1289;21992;-62
2023/02/21 04:05:53;;;;;;;4.40;1.50;;;;;;;12.48;50.94;99370.21;107800;1289;22002;-62
2023/02/21 04:08:19;;;;;;;4.50;2.10;;;;;;;12.47;50.97;99368.66;107818;1289;21990;-62
2023/02/21 04:10:45;;;;;;;3.50;1.50;;;;;;;12.51;51.03;99360.60;107838;1289;22003;-62
2023/02/21 04:13:11;;;;;;;2.30;1.30;;;;;;;12.59;50.87;99358.90;107827;1289;22026;-62
2023/02/21 04:15:37;;;;;;;3.60;1.60;;;;;;;12.63;50.87;99359.45;107923;1289;21993;-63
2023/02/21 04:18:03;;;;;;;3.20;1.80;;;;;;;12.64;50.92;99356.27;107854;1289;22003;-62
2023/02/21 04:20:29;;;;;;;2.40;1.30;;;;;;;12.69;50.87;99355.90;107843;1289;21992;-63
2023/02/21 04:22:54;;;;;;;3.90;1.80;;;;;;;12.72;50.76;99353.70;107913;1289;21998;-66
2023/02/21 04:25:20;;;;;;;3.40;1.80;;;;;;;12.78;50.80;99357.88;107762;1289;21990;-63
2023/02/21 04:27:46;;;;;;;4.90;1.70;;;;;;;12.76;50.78;99358.99;107706;1289;22724;-62
2023/02/21 04:30:12;;;;;;;3.40;1.60;;;;;;;12.79;50.91;99358.71;107762;1289;21991;-66
2023/02/21 04:32:38;;;;;;;3.40;2.10;;;;;;;12.80;50.93;99362.90;107799;1289;22008;-66
2023/02/21 04:35:03;;;;;;;3.60;1.50;;;;;;;12.84;50.85;99360.80;107720;1289;22459;-66
2023/02/21 04:37:29;;;;;;;3.40;1.80;;;;;;;12.83;50.90;99352.38;107892;1289;21996;-66
2023/02/21 04:39:55;;;;;;;4.10;1.70;;;;;;;12.81;51.08;99343.66;107819;1289;21996;-62
2023/02/21 04:42:20;;;;;;;5.10;2.20;;;;;;;12.81;51.14;99335.55;107748;1289;21993;-63
2023/02/21 04:44:47;;;;;;;4.70;2.20;;;;;;;12.75;51.15;99330.84;107736;1289;21996;-63
2023/02/21 04:47:13;;;;;;;4.00;2.00;;;;;;;12.73;50.99;99338.66;107809;1289;22031;-63
2023/02/21 04:49:39;;;;;;;3.10;1.80;;;;;;;12.70;51.18;99337.74;106930;1289;1003334;-66
2023/02/21 04:52:04;;;;;;;3.90;1.90;;;;;;;12.67;51.19;99338.73;107785;1289;21993;-66
2023/02/21 04:54:30;;;;;;;4.00;2.20;;;;;;;12.70;50.97;99345.81;107744;1289;21990;-62
2023/02/21 04:56:56;;;;;;;3.20;1.70;;;;;;;12.67;50.92;99344.72;107745;1289;21999;-65
2023/02/21 04:59:22;;;;;;;4.00;2.00;;;;;;;12.72;50.81;99342.08;107428;1289;387372;-66
2023/02/21 05:01:49;;;;;;;3.30;1.80;;;;;;;12.73;50.71;99333.05;107826;1289;23518;-62
2023/02/21 05:04:14;;;;;;;3.90;2.10;;;;;;;12.71;50.70;99336.64;107871;1289;21990;-65
2023/02/21 05:06:41;;;;;;;7.00;2.00;;;;;;;12.70;50.62;99329.27;107772;1289;22002;-66
2023/02/21 05:09:06;;;;;;;4.90;2.30;;;;;;;12.69;50.59;99325.09;107744;1289;21994;-66
2023/02/21 05:11:35;;;;;;;4.90;2.80;;;;;;;12.66;50.57;99325.73;107801;1289;22084;-62
2023/02/21 05:14:02;;;;;;;5.70;2.20;;;;;;;12.68;50.42;99321.28;107742;1289;21991;-62
2023/02/21 05:16:28;;;;;;;4.80;2.50;;;;;;;12.67;50.43;99322.35;107793;1289;22009;-62
2023/02/21 05:18:54;;;;;;;3.80;2.10;;;;;;;12.70;50.47;99326.46;107864;1289;22127;-67
2023/02/21 05:21:21;;;;;;;3.50;2.30;;;;;;;12.64;50.57;99338.49;107958;1289;23119;-67
2023/02/21 05:23:57;;;;;;;3.80;2.20;;;;;;;12.65;50.60;99336.88;107811;1289;22035;-62
2023/02/21 05:26:25;;;;;;;3.70;2.30;;;;;;;12.57;50.88;99332.42;107789;1289;21995;-67
2023/02/21 05:28:51;;;;;;;4.00;2.10;;;;;;;12.51;51.10;99333.34;107923;1289;21998;-63
2023/02/21 05:31:17;;;;;;;4.20;2.30;;;;;;;12.61;50.78;99337.72;107698;1286;22003;-65
2023/02/21 05:33:43;;;;;;;4.60;2.70;;;;;;;12.59;50.99;99330.02;107849;1289;21998;-64
2023/02/21 05:36:08;;;;;;;4.00;2.40;;;;;;;12.64;51.05;99327.59;107804;1289;21994;-65
2023/02/21 05:38:43;;;;;;;4.10;2.30;;;;;;;12.63;51.19;99331.84;107703;1289;22005;-63
2023/02/21 05:41:09;;;;;;;4.40;2.20;;;;;;;12.63;51.21;99334.12;107774;1289;21990;-63
2023/02/21 05:43:36;;;;;;;3.80;2.30;;;;;;;12.63;51.23;99339.40;107747;1289;21995;-63
2023/02/21 05:46:04;;;;;;;3.30;2.10;;;;;;;12.66;51.21;99341.05;107902;1289;22001;-63
2023/02/21 05:48:30;;;;;;;3.50;2.20;;;;;;;12.77;51.05;99348.92;107900;1289;22000;-63
2023/02/21 05:50:56;;;;;;;3.80;2.20;;;;;;;12.72;51.24;99343.81;107865;1289;23723;-63
2023/02/21 05:53:22;;;;;;;5.40;2.60;;;;;;;12.67;51.32;99338.18;107755;1289;22011;-64
2023/02/21 05:55:48;;;;;;;3.80;2.10;;;;;;;12.69;51.52;99336.54;107787;1289;22002;-63
2023/02/21 05:58:14;;;;;;;3.60;1.90;;;;;;;12.68;51.54;99340.97;107811;1289;23663;-67
2023/02/21 06:00:40;;;;;;;3.30;2.10;;;;;;;12.71;51.55;99342.09;108134;1288;23754;-64
2023/02/21 06:03:07;;;;;;;4.00;1.90;;;;;;;12.83;51.47;99334.96;107694;1290;21993;-61
2023/02/21 06:05:35;;;;;;;3.20;2.00;;;;;;;12.88;51.24;99327.04;108323;1289;22000;-62
2023/02/21 06:08:01;;;;;;;3.30;2.00;;;;;;;13.04;51.08;99323.23;108296;1289;22002;-62
2023/02/21 06:10:27;;;;;;;4.70;2.50;;;;;;;13.03;51.24;99330.31;107890;1289;22027;-67
2023/02/21 06:12:53;;;;;;;6.30;2.20;;;;;;;13.19;51.14;99341.34;107862;1289;22001;-65
2023/02/21 06:15:19;;;;;;;4.30;2.10;;;;;;;13.37;50.84;99345.55;107910;1289;21990;-62
2023/02/21 06:17:45;;;;;;;4.20;1.90;;;;;;;13.44;50.83;99347.04;107779;1289;22006;-62
2023/02/21 06:20:15;;;;;;;2.90;1.90;;;;;;;13.59;50.55;99349.27;107797;1289;21991;-67
2023/02/21 06:22:42;;;;;;;3.20;1.90;;;;;;;13.85;50.17;99344.33;107879;1289;22089;-67
2023/02/21 06:25:09;;;;;;;3.50;2.00;;;;;;;13.91;49.73;99350.60;107757;1289;21996;-66
2023/02/21 06:27:36;;;;;;;3.50;2.00;;;;;;;13.96;49.40;99352.14;108007;1289;21995;-66
2023/02/21 06:30:03;;;;;;;5.00;2.50;;;;;;;14.00;49.54;99348.98;107870;1283;21995;-63
2023/02/21 06:32:29;;;;;;;3.80;2.30;;;;;;;14.03;49.42;99352.56;109068;1290;21994;-61
2023/02/21 06:34:55;;;;;;;5.70;2.40;;;;;;;14.18;49.60;99345.04;107757;1289;22009;-67
2023/02/21 06:37:21;;;;;;;3.20;1.90;;;;;;;14.31;49.47;99347.11;107761;1289;24182;-67
2023/02/21 06:39:47;;;;;;;4.40;2.40;;;;;;;14.43;49.19;99346.92;107817;1289;21996;-63
2023/02/21 06:42:14;;;;;;;4.10;2.20;;;;;;;14.63;49.09;99346.05;107762;1289;22065;-67
2023/02/21 06:44:45;;;;;;;3.30;2.00;;;;;;;14.62;48.75;99343.64;107783;1289;21990;-63
2023/02/21 06:47:12;;;;;;;4.30;2.40;;;;;;;14.70;48.86;99347.66;107715;1289;21996;-63
2023/02/21 06:49:44;;;;;;;4.50;1.90;;;;;;;14.80;49.24;99351.67;108093;1289;22002;-62
2023/02/21 06:52:12;;;;;;;4.10;2.20;;;;;;;14.74;49.24;99355.98;108093;1283;23660;-65
2023/02/21 06:54:38;;;;;;;4.20;1.90;;;;;;;14.79;49.28;99355.76;107897;1289;22000;-65
2023/02/21 06:57:04;;;;;;;4.20;2.50;;;;;;;14.73;49.15;99368.35;107856;1289;22001;-66
2023/02/21 06:59:30;;;;;;;4.40;2.20;;;;;;;14.86;48.68;99370.96;107969;1289;21993;-66
2023/02/21 07:01:56;;;;;;;3.10;1.80;;;;;;;14.92;48.57;99359.73;107826;1289;21992;-66
2023/02/21 07:04:25;;;;;;;3.20;1.90;;;;;;;14.96;48.63;99357.28;107797;1286;21995;-66
2023/02/21 07:06:51;;;;;;;3.60;2.10;;;;;;;14.95;48.57;99348.67;107776;1289;21996;-67
2023/02/21 07:09:17;;;;;;;3.60;2.10;;;;;;;15.00;48.44;99351.06;107754;1289;22002;-66
2023/02/21 07:11:43;;;;;;;3.10;1.90;;;;;;;14.98;48.28;99345.67;107796;1286;22006;-66
2023/02/21 07:14:09;;;;;;;4.30;2.20;;;;;;;14.96;48.06;99345.61;107778;1289;22004;-66
2023/02/21 07:16:36;;;;;;;3.20;1.90;;;;;;;14.93;48.06;99347.85;107759;1289;21993;-66
2023/02/21 07:19:02;;;;;;;3.00;1.60;;;;;;;14.97;48.15;99346.46;107770;1289;21991;-66
2023/02/21 07:21:28;;;;;;;4.00;2.20;;;;;;;15.08;48.61;99344.16;107806;1289;22168;-66
2023/02/21 07:23:53;;;;;;;3.60;2.00;;;;;;;15.35;48.63;99345.17;107753;1289;22134;-66
2023/02/21 07:26:19;;;;;;;3.30;2.10;;;;;;;15.50;48.43;99348.86;107741;1289;22001;-66
2023/02/21 07:28:49;;;;;;;2.90;2.00;;;;;;;15.67;47.65;99345.23;107788;1289;22034;-66
2023/02/21 07:31:15;;;;;;;4.30;2.00;;;;;;;15.85;47.54;99343.10;107761;1289;21994;-67
2023/02/21 07:33:41;;;;;;;4.20;1.90;;;;;;;15.98;47.10;99342.44;107759;1289;22749;-67
2023/02/21 07:36:07;;;;;;;3.10;1.90;;;;;;;16.02;46.73;99349.48;107780;1289;21993;-67
2023/02/21 07:38:33;;;;;;;2.90;1.80;;;;;;;16.00;46.25;99338.12;107756;1289;22001;-67
2023/02/21 07:41:01;;;;;;;5.10;2.10;;;;;;;16.19;46.75;99335.70;107718;1289;21996;-66
2023/02/21 07:43:28;;;;;;;3.00;1.70;;;;;;;16.42;46.67;99329.58;107758;1289;23078;-66
2023/02/21 07:45:54;;;;;;;4.60;1.60;;;;;;;16.56;45.59;99327.74;107824;1289;22038;-66
2023/02/21 07:48:20;;;;;;;3.70;1.80;;;;;;;16.71;45.02;99332.82;107774;1289;23732;-66
2023/02/21 07:50:46;;;;;;;3.00;1.70;;;;;;;16.91;44.28;99331.19;107810;1289;21998;-66
2023/02/21 07:53:13;;;;;;;3.40;1.90;;;;;;;17.03;43.98;99325.77;107799;1289;22014;-66
2023/02/21 07:55:43;;;;;;;3.50;1.90;;;;;;;17.17;44.39;99325.14;107775;1287;22004;-66
2023/02/21 07:58:09;;;;;;;4.90;2.30;;;;;;;17.23;44.68;99326.24;107849;1289;23738;-67
2023/02/21 08:00:35;;;;;;;2.80;1.70;;;;;;;17.34;44.77;99332.70;107786;1289;21994;-66
2023/02/21 08:03:01;;;;;;;2.60;1.60;;;;;;;17.36;44.41;99337.02;107827;1283;21991;-65
2023/02/21 08:05:27;;;;;;;3.40;1.70;;;;;;;17.21;43.99;99331.52;107777;1289;22003;-65
2023/02/21 08:07:53;;;;;;;3.80;1.60;;;;;;;17.14;44.12;99333.84;107761;1289;21998;-65
2023/02/21 08:10:24;;;;;;;3.90;1.80;;;;;;;17.01;43.91;99335.65;107754;1289;22038;-66
2023/02/21 08:12:54;;;;;;;4.30;1.80;;;;;;;17.03;44.24;99330.73;107799;1289;23020;-66
2023/02/21 08:15:20;;;;;;;3.20;1.90;;;;;;;16.99;44.32;99324.91;107806;1289;21998;-66
2023/02/21 08:17:49;;;;;;;3.80;2.20;;;;;;;17.06;44.43;99320.45;107831;1289;22005;-62
2023/02/21 08:20:16;;;;;;;3.60;1.60;;;;;;;17.23;44.64;99313.82;107783;1289;21991;-62
2023/02/21 08:22:41;;;;;;;3.90;1.90;;;;;;;17.34;44.26;99310.38;107757;1289;22007;-64
2023/02/21 08:25:12;;;;;;;2.50;1.40;;;;;;;17.47;43.81;99301.82;107737;1289;22022;-63
2023/02/21 08:27:39;;;;;;;3.60;1.70;;;;;;;17.63;43.55;99295.04;107734;1289;21994;-62
2023/02/21 08:30:06;;;;;;;2.60;1.70;;;;;;;17.80;43.38;99292.63;107781;1289;22171;-66
2023/02/21 08:32:34;;;;;;;4.60;1.80;;;;;;;17.86;42.92;99289.09;107768;1289;23722;-66
2023/02/21 08:34:59;;;;;;;4.20;1.90;;;;;;;17.96;42.65;99281.61;107809;1276;22856;-66
2023/02/21 08:37:31;;;;;;;3.60;1.70;;;;;;;18.15;42.78;99282.95;107683;1289;22007;-65
2023/02/21 08:39:57;;;;;;;3.10;1.60;;;;;;;18.30;42.65;99273.69;107757;1289;21991;-66
2023/02/21 08:42:23;;;;;;;4.90;1.70;;;;;;;18.43;42.68;99272.88;107716;1289;21997;-65
2023/02/21 08:44:50;;;;;;;4.40;1.80;;;;;;;18.47;41.77;99277.63;107744;1289;22006;-63
2023/02/21 08:47:16;;;;;;;3.00;1.70;;;;;;;18.57;41.45;99280.86;107799;1289;22031;-65
2023/02/21 08:49:46;;;;;;;4.40;2.00;;;;;;;18.47;41.14;99278.13;107805;1289;23684;-66
2023/02/21 08:52:18;;;;;;;4.50;1.90;;;;;;;18.47;41.24;99268.56;107770;1289;22858;-62
2023/02/21 08:54:43;;;;;;;3.60;2.00;;;;;;;18.54;41.26;99257.26;107876;1287;23062;-63
2023/02/21 08:57:09;;;;;;;3.90;2.00;;;;;;;18.58;40.99;99253.61;107801;1289;22029;-62
2023/02/21 08:59:41;;;;;;;3.50;1.90;;;;;;;18.63;40.78;99251.04;107803;1289;21982;-62
2023/02/21 09:02:16;;;;;;;3.70;2.10;;;;;;;18.74;40.75;99258.12;107998;1289;21995;-63
2023/02/21 09:04:43;;;;;;;3.00;1.60;;;;;;;18.78;40.62;99259.70;107963;1289;23732;-63
2023/02/21 09:07:10;;;;;;;3.70;1.80;;;;;;;18.96;40.53;99261.36;108006;1289;22000;-65
2023/02/21 09:09:37;;;;;;;3.20;1.80;;;;;;;19.07;40.01;99258.92;107938;1289;22161;-65
2023/02/21 09:12:07;;;;;;;3.80;1.50;;;;;;;19.15;39.66;99254.44;107908;1289;21984;-62
2023/02/21 09:14:34;;;;;;;2.90;1.70;;;;;;;19.21;39.44;99258.88;107837;1289;21996;-65
2023/02/21 09:17:01;;;;;;;3.20;1.80;;;;;;;19.23;39.70;99261.44;107912;1278;22055;-66
2023/02/21 09:19:27;;;;;;;3.50;2.20;;;;;;;19.34;39.49;99256.06;107165;1289;1002249;-62
2023/02/21 09:21:55;;;;;;;2.50;1.70;;;;;;;19.30;38.97;99258.98;107736;1289;22163;-65
2023/02/21 09:24:24;;;;;;;3.10;2.00;;;;;;;19.23;38.87;99256.28;107809;1289;21993;-63
2023/02/21 09:26:54;;;;;;;3.50;1.90;;;;;;;19.28;39.12;99248.98;107810;1289;21992;-62
2023/02/21 09:29:20;;;;;;;3.70;1.80;;;;;;;19.19;39.03;99253.67;107748;1289;21967;-62
2023/02/21 09:31:48;;;;;;;3.60;1.90;;;;;;;19.12;38.92;99261.59;107770;1289;22034;-64
2023/02/21 09:34:14;;;;;;;3.90;1.60;;;;;;;19.07;38.39;99263.15;107695;1289;21997;-65
2023/02/21 09:36:40;;;;;;;4.30;1.70;;;;;;;19.05;38.81;99256.71;107770;1289;21999;-62
2023/02/21 09:39:06;;;;;;;2.10;1.40;;;;;;;18.81;38.63;99255.77;107789;1289;21998;-65
2023/02/21 09:41:33;;;;;;;2.90;1.60;;;;;;;18.88;39.14;99256.17;107786;1289;22005;-62
2023/02/21 09:44:00;;;;;;;3.60;1.80;;;;;;;18.82;39.32;99256.92;107733;1289;21988;-65
2023/02/21 09:46:40;;;;;;;3.20;1.70;;;;;;;18.80;39.58;99257.23;107917;1289;22007;-65
2023/02/21 09:49:12;;;;;;;3.40;1.70;;;;;;;18.64;39.18;99266.05;107849;1289;22001;-63
2023/02/21 09:51:40;;;;;;;2.90;1.70;;;;;;;18.57;39.46;99261.88;107754;1289;21990;-65
2023/02/21 09:54:16;;;;;;;3.20;1.20;;;;;;;18.54;39.54;99264.05;107770;1289;22031;-66
2023/02/21 09:56:42;;;;;;;3.30;1.10;;;;;;;18.50;39.49;99259.51;107766;1289;21996;-63
2023/02/21 09:59:10;;;;;;;2.50;1.20;;;;;;;18.42;39.19;99252.16;107696;1286;21988;-65
2023/02/21 10:01:36;;;;;;;3.20;1.40;;;;;;;18.49;39.49;99251.38;107971;1289;22030;-65
2023/02/21 10:04:16;;;;;;;2.40;1.10;;;;;;;18.54;39.50;99244.88;107854;1289;22026;-66
2023/02/21 10:07:15;;;;;;;2.20;1.40;;;;;;;18.65;39.35;99232.08;107882;1286;21995;-64
2023/02/21 10:09:58;;;;;;;2.50;1.20;;;;;;;18.85;39.16;99225.98;107781;1289;21987;-66
2023/02/21 10:12:24;;;;;;;2.90;1.30;;;;;;;19.08;39.31;99219.38;107166;1286;1002464;-65
2023/02/21 10:15:11;;;;;;;2.20;1.10;;;;;;;19.25;38.90;99216.10;108061;1287;22034;-63
2023/02/21 10:17:52;;;;;;;69.00;5.60;;;;;;;19.39;38.72;99211.27;107925;1289;22000;-66
2023/02/21 10:20:32;;;;;;;2.80;1.20;;;;;;;19.54;38.97;99212.21;107915;1289;22001;-66
2023/02/21 10:22:58;;;;;;;2.40;1.00;;;;;;;19.72;38.30;99198.70;108035;1289;21990;-65
2023/02/21 10:25:31;;;;;;;1.40;0.90;;;;;;;19.82;37.54;99195.93;108041;1289;21993;-65
2023/02/21 10:27:58;;;;;;;2.30;1.00;;;;;;;19.83;37.17;99197.09;107917;1289;22395;-65
2023/02/21 10:30:35;;;;;;;2.20;1.10;;;;;;;19.81;37.05;99184.08;109123;1289;23474;-66
2023/02/21 10:33:05;;;;;;;2.20;1.10;;;;;;;19.81;37.30;99182.77;107869;1289;23638;-66
2023/02/21 10:35:35;;;;;;;;;;;;;;;19.84;37.19;99183.65;107900;1289;23055;-64
2023/02/21 10:38:02;;;;;;;3.00;1.10;;;;;;;19.76;36.67;99176.58;107715;1289;21995;-64
2023/02/21 10:40:35;;;;;;;2.90;1.20;;;;;;;19.75;37.13;99173.20;107771;1289;22455;-66
2023/02/21 10:43:26;;;;;;;3.90;1.60;;;;;;;19.77;38.00;99170.30;107971;1289;23750;-63
2023/02/21 10:45:54;;;;;;;;;;;;;;;19.55;37.89;99170.17;107863;1289;21985;-63
2023/02/21 10:48:20;;;;;;;4.60;1.60;;;;;;;19.54;38.09;99169.31;108024;1289;22050;-66
2023/02/21 10:50:50;;;;;;;3.90;1.50;;;;;;;19.52;37.90;99159.71;107821;1289;22031;-66
2023/02/21 10:53:29;;;;;;;3.00;1.50;;;;;;;19.48;37.63;99151.23;107814;1289;21978;-64
2023/02/21 10:56:08;;;;;;;3.30;1.90;;;;;;;19.44;37.54;99152.23;107884;1286;22093;-66
2023/02/21 10:58:34;;;;;;;3.70;1.80;;;;;;;19.25;37.61;99155.84;107840;1289;21992;-66
2023/02/21 11:01:20;;;;;;;3.60;1.80;;;;;;;19.22;37.47;99145.50;107827;1289;23231;-65
2023/02/21 11:03:56;;;;;;;3.60;1.50;;;;;;;19.31;37.56;99132.81;107827;1289;23635;-65
2023/02/21 11:06:34;;;;;;;3.60;1.50;;;;;;;19.30;37.50;99136.30;107873;1289;21989;-67
2023/02/21 11:09:00;;;;;;;3.40;1.90;;;;;;;19.30;37.78;99140.94;108024;1289;21990;-64
2023/02/21 11:11:40;;;;;;;3.40;1.60;;;;;;;19.19;37.39;99145.55;107955;1289;22062;-66
2023/02/21 11:14:26;;;;;;;5.40;1.50;;;;;;;19.15;37.42;99143.17;107910;1289;21987;-64
2023/02/21 11:17:25;;;;;;;6.00;1.80;;;;;;;19.16;37.84;99146.85;107204;1286;1002513;-64
2023/02/21 11:20:06;;;;;;;3.50;1.80;;;;;;;19.13;37.48;99148.09;107593;1289;21993;-64
2023/02/21 11:22:42;;;;;;;5.90;1.60;;;;;;;19.07;37.41;99140.67;108021;1289;23869;-65
2023/02/21 11:25:25;;;;;;;3.80;1.70;;;;;;;18.90;37.72;99147.31;107892;1289;21991;-64
2023/02/21 11:28:00;;;;;;;3.10;1.60;;;;;;;18.84;38.80;99148.92;107898;1283;21995;-65
2023/02/21 11:30:25;;;;;;;7.70;1.80;;;;;;;18.88;38.91;99142.23;108001;1289;22009;-66
2023/02/21 11:32:54;;;;;;;3.50;1.70;;;;;;;18.97;38.98;99142.42;107953;1289;21985;-65
2023/02/21 11:35:43;;;;;;;3.50;1.70;;;;;;;19.11;39.22;99138.42;107814;1289;22088;-67
2023/02/21 11:38:34;;;;;;;3.20;1.70;;;;;;;19.24;38.84;99127.95;107887;1289;21994;-64
2023/02/21 11:41:00;;;;;;;3.20;1.50;;;;;;;19.39;38.95;99116.80;107987;1289;22061;-67
2023/02/21 11:43:31;;;;;;;3.40;1.30;;;;;;;19.45;38.33;99113.38;107965;1289;22012;-67
2023/02/21 11:46:31;;;;;;;2.70;1.30;;;;;;;19.42;37.78;99108.98;107898;1289;22015;-64
2023/02/21 11:49:18;;;;;;;3.60;1.00;;;;;;;19.45;36.96;99118.20;107866;1289;22076;-64
2023/02/21 11:51:55;;;;;;;3.30;0.90;;;;;;;19.61;36.00;99109.77;107928;1289;21989;-66
2023/02/21 11:54:25;;;;;;;2.10;1.20;;;;;;;19.59;35.68;99109.58;107826;1289;22475;-65
2023/02/21 11:57:05;;;;;;;2.30;1.20;;;;;;;19.71;35.97;99108.72;107868;1289;23788;-64
2023/02/21 11:59:51;;;;;;;2.60;1.10;;;;;;;19.92;36.06;99098.77;107962;1289;22000;-63
2023/02/21 12:02:26;;;;;;;2.30;0.90;;;;;;;20.00;35.34;99103.31;107910;1289;21990;-63
2023/02/21 12:05:03;;;;;;;3.90;1.00;;;;;;;20.13;35.37;99105.10;107794;1289;22042;-63
2023/02/21 12:07:49;;;;;;;3.10;1.10;;;;;;;20.25;35.40;99109.06;107846;1289;21995;-63
2023/02/21 12:10:50;;;;;;;2.30;1.00;;;;;;;20.16;35.28;99109.68;107844;1289;21993;-64
2023/02/21 12:13:37;;;;;;;3.10;1.00;;;;;;;20.05;35.35;99115.24;107865;1289;22099;-66
2023/02/21 12:16:25;;;;;;;2.60;1.00;;;;;;;19.95;35.48;99114.39;107973;1289;23732;-65
2023/02/21 12:18:56;;;;;;;1.90;0.90;;;;;;;19.92;36.02;99105.52;107675;1289;21994;-66
2023/02/21 12:21:44;;;;;;;2.60;1.10;;;;;;;19.92;35.98;99101.63;107780;1289;23663;-66
2023/02/21 12:24:29;;;;;;;1.60;0.90;;;;;;;19.94;35.74;99094.13;107763;1289;22186;-66
2023/02/21 12:27:11;;;;;;;2.70;1.10;;;;;;;20.05;35.55;99090.02;107728;1289;22034;-65
2023/02/21 12:29:53;;;;;;;1.70;0.90;;;;;;;20.20;35.61;99080.04;107985;1288;22011;-66
2023/02/21 12:33:10;;;;;;;2.00;1.00;;;;;;;20.23;35.24;99079.42;107757;1289;22010;-66
2023/02/21 12:36:11;;;;;;;4.10;1.20;;;;;;;20.22;34.89;99080.58;107634;1289;22110;-64
2023/02/21 12:38:44;;;;;;;2.80;0.90;;;;;;;20.15;34.40;99084.10;107782;1286;22001;-65
2023/02/21 12:42:03;;;;;;;2.30;0.90;;;;;;;20.10;34.47;99090.70;107732;1287;21997;-65
2023/02/21 12:44:36;;;;;;;2.20;1.00;;;;;;;20.01;34.81;99091.71;107283;1296;22000;-65
2023/02/21 12:47:26;;;;;;;2.10;0.80;;;;;;;19.98;35.33;99090.45;107685;1289;22047;-66
2023/02/21 12:49:54;;;;;;;3.20;1.00;;;;;;;19.89;35.27;99093.25;107880;1289;22001;-64
2023/02/21 12:52:57;;;;;;;2.00;1.00;;;;;;;19.79;35.49;99098.52;107902;1289;21996;-67
2023/02/21 12:55:24;;;;;;;3.20;0.90;;;;;;;19.81;35.91;99101.63;107668;1289;21998;-64
2023/02/21 12:57:57;;;;;;;1.50;0.80;;;;;;;19.96;36.31;99104.83;107874;1289;21994;-65
2023/02/21 13:00:30;;;;;;;1.90;0.80;;;;;;;20.17;36.33;99106.40;107959;1289;22270;-66
2023/02/21 13:03:16;;;;;;;2.00;1.10;;;;;;;20.32;36.00;99101.59;107793;1289;21999;-64
2023/02/21 13:05:45;;;;;;;4.30;1.30;;;;;;;20.32;34.71;99095.69;107753;1289;21999;-65
2023/02/21 13:08:21;;;;;;;3.60;1.00;;;;;;;20.31;34.70;99096.13;107770;1289;22000;-64
2023/02/21 13:10:49;;;;;;;2.40;1.10;;;;;;;20.25;34.61;99102.27;107970;1287;23067;-65
2023/02/21 13:13:18;;;;;;;3.20;0.80;;;;;;;20.06;34.29;99111.45;107749;1285;22034;-65
2023/02/21 13:15:47;;;;;;;1.60;0.80;;;;;;;19.89;34.04;99121.88;107797;1289;21978;-64
2023/02/21 13:18:19;;;;;;;2.00;0.90;;;;;;;19.60;34.60;99122.69;107892;1289;21995;-67
2023/02/21 13:20:50;;;;;;;3.50;1.60;;;;;;;19.56;35.06;99116.73;107870;1285;21994;-65
2023/02/21 13:26:50;;;;;;;3.20;1.70;;;;;;;19.31;35.52;99115.08;107706;1289;21992;-66
2023/02/21 13:29:25;;;;;;;7.60;4.90;;;;;;;19.20;35.74;99132.54;107786;1289;23634;-67
2023/02/21 13:32:00;;;;;;;3.90;1.80;;;;;;;19.12;35.43;99145.16;107885;1289;22428;-66
2023/02/21 16:17:57;;;;;;;1.80;0.80;;;;;;;9.13;97.33;99489.45;107557;1289;548443;-61
2023/02/21 16:20:38;;;;;;;5.10;2.40;;;;;;;11.77;80.16;99478.77;107587;1295;22016;-60
2023/02/21 16:23:23;;;;;;;7.90;4.40;;;;;;;12.19;73.58;99485.19;107358;1297;23136;-67
2023/02/21 16:25:56;;;;;;;6.00;3.30;;;;;;;12.37;71.09;99497.97;107289;1296;21997;-61
2023/02/21 16:28:23;;;;;;;3.20;1.80;;;;;;;12.41;69.68;99502.60;107406;1296;22176;-69
2023/02/21 16:30:49;;;;;;;3.40;1.90;;;;;;;12.70;67.77;99506.88;107245;1294;213838;-64
2023/02/21 16:33:17;;;;;;;1.80;1.10;;;;;;;12.75;66.59;99515.16;107406;1294;22113;-63
2023/02/21 16:35:42;;;;;;;1.90;1.00;;;;;;;12.81;65.90;99519.52;107755;1293;22002;-62
2023/02/21 16:38:12;;;;;;;2.80;1.20;;;;;;;12.82;65.26;99524.59;107682;1293;22002;-64
2023/02/21 16:40:38;;;;;;;3.20;1.30;;;;;;;12.91;63.94;99530.43;107670;1293;22001;-62
2023/02/21 16:43:05;;;;;;;2.80;0.80;;;;;;;13.01;62.90;99544.71;107707;1293;22093;-61
2023/02/21 16:45:32;;;;;;;2.50;0.70;;;;;;;12.99;62.13;99563.09;107671;1293;23736;-67